Time;durP1;ratioP1;P1;durP2;ratioP2;P2;SDS_P1;SDS_P2;PMS_P1;PMS_P2;Temp;Humidity;BMP_temperature;BMP_pressure;BME280_temperature;BME280_humidity;BME280_pressure;Samples;Min_cycle;Max_cycle;Signal;HPM_P1;HPM_P2
2022/05/02 00:01:18;;;;;;;3.07;2.60;;;;;;;;;;6164130;28;20665;-71
2022/05/02 00:04:40;;;;;;;4.20;2.50;;;;;;;;;;6165341;28;20308;-71
2022/05/02 00:08:00;;;;;;;1.83;1.70;;;;;;;;;;6181477;28;20804;-70
2022/05/02 00:11:20;;;;;;;2.73;2.13;;;;;;;;;;6156026;28;20226;-72
2022/05/02 00:14:41;;;;;;;2.40;1.90;;;;;;;;;;6178877;28;20582;-72
2022/05/02 00:18:01;;;;;;;3.53;2.07;;;;;;;;;;6179313;28;20288;-72
2022/05/02 00:21:23;;;;;;;3.37;2.20;;;;;;;;;;6177282;28;20233;-72
2022/05/02 00:24:44;;;;;;;4.20;2.00;;;;;;;;;;6181042;28;20233;-70
2022/05/02 00:28:05;;;;;;;2.93;2.50;;;;;;;;;;6178667;28;20261;-72
2022/05/02 00:31:25;;;;;;;2.53;1.87;;;;;;;;;;6180554;28;20259;-71
2022/05/02 00:34:46;;;;;;;2.97;1.93;;;;;;;;;;6180351;28;20237;-72
2022/05/02 00:38:08;;;;;;;4.07;2.30;;;;;;;;;;6180201;28;20241;-71
2022/05/02 00:41:29;;;;;;;4.20;2.40;;;;;;;;;;6154166;28;20709;-71
2022/05/02 00:44:50;;;;;;;2.83;2.00;;;;;;;;;;6179056;28;20618;-70
2022/05/02 00:48:11;;;;;;;3.33;1.90;;;;;;;;;;6179854;28;20494;-72
2022/05/02 00:51:31;;;;;;;2.90;2.47;;;;;;;;;;6150462;28;20317;-71
2022/05/02 00:54:54;;;;;;;3.23;2.37;;;;;;;;;;6179770;28;20230;-71
2022/05/02 00:58:15;;;;;;;2.67;2.30;;;;;;;;;;6173556;28;20771;-70
2022/05/02 01:01:35;;;;;;;3.40;2.50;;;;;;;;;;6155447;28;20229;-71
2022/05/02 01:04:56;;;;;;;2.80;2.17;;;;;;;;;;6179626;28;20229;-70
2022/05/02 01:08:16;;;;;;;2.60;2.40;;;;;;;;;;6179165;28;20234;-70
2022/05/02 01:11:38;;;;;;;3.73;2.70;;;;;;;;;;6169437;28;20253;-71
2022/05/02 01:14:59;;;;;;;3.10;2.83;;;;;;;;;;6179868;28;20636;-71
2022/05/02 01:18:19;;;;;;;3.20;2.93;;;;;;;;;;6177640;28;20336;-70
2022/05/02 01:21:44;;;;;;;3.07;2.73;;;;;;;;;;6166679;28;20229;-71
2022/05/02 01:25:04;;;;;;;3.47;2.93;;;;;;;;;;6174235;28;20615;-71
2022/05/02 01:28:25;;;;;;;2.80;2.60;;;;;;;;;;6179293;28;20612;-71
2022/05/02 01:31:46;;;;;;;4.93;3.57;;;;;;;;;;6166692;28;20308;-71
2022/05/02 01:35:07;;;;;;;5.87;3.27;;;;;;;;;;6173484;28;20695;-72
2022/05/02 01:38:29;;;;;;;3.37;3.07;;;;;;;;;;6171063;28;20230;-71
2022/05/02 01:41:50;;;;;;;3.07;2.77;;;;;;;;;;6180333;28;20607;-70
2022/05/02 01:45:11;;;;;;;4.77;4.23;;;;;;;;;;6172725;28;20230;-70
2022/05/02 01:48:31;;;;;;;7.20;4.23;;;;;;;;;;6177269;28;20222;-71
2022/05/02 01:51:52;;;;;;;6.20;4.07;;;;;;;;;;6177910;28;20229;-71
2022/05/02 01:55:14;;;;;;;3.20;2.90;;;;;;;;;;6175182;28;20611;-70
2022/05/02 01:58:35;;;;;;;3.77;3.33;;;;;;;;;;6173885;28;20230;-71
2022/05/02 02:01:56;;;;;;;2.90;2.60;;;;;;;;;;6173503;28;20514;-71
2022/05/02 02:08:54;;;;;;;4.67;3.93;;;;;;;;;;6177335;28;20225;-70
2022/05/02 02:12:16;;;;;;;3.07;2.87;;;;;;;;;;6174254;28;20505;-70
2022/05/02 02:15:37;;;;;;;4.47;3.90;;;;;;;;;;6176753;28;20722;-70
2022/05/02 02:18:57;;;;;;;3.53;3.20;;;;;;;;;;6175967;28;20233;-70
2022/05/02 02:22:18;;;;;;;3.90;3.50;;;;;;;;;;6173267;28;20638;-70
2022/05/02 02:25:39;;;;;;;3.97;3.53;;;;;;;;;;6174849;28;20242;-70
2022/05/02 02:29:04;;;;;;;8.90;4.57;;;;;;;;;;6172568;28;20785;-70
2022/05/02 02:32:25;;;;;;;4.30;3.90;;;;;;;;;;6176105;28;20259;-71
2022/05/02 02:35:45;;;;;;;6.10;3.50;;;;;;;;;;6171306;28;21627;-71
2022/05/02 02:39:06;;;;;;;4.43;3.93;;;;;;;;;;6177274;28;20253;-71
2022/05/02 02:42:27;;;;;;;4.10;3.80;;;;;;;;;;6175775;28;20262;-70
2022/05/02 02:45:48;;;;;;;4.50;3.70;;;;;;;;;;6167115;28;20241;-71
2022/05/02 02:49:09;;;;;;;8.83;4.40;;;;;;;;;;6171713;28;20239;-71
2022/05/02 02:52:29;;;;;;;4.03;3.73;;;;;;;;;;6172946;28;20225;-70
2022/05/02 02:55:50;;;;;;;5.17;4.67;;;;;;;;;;6171302;28;20317;-71
2022/05/02 02:59:11;;;;;;;6.00;5.40;;;;;;;;;;6173819;28;20631;-70
2022/05/02 03:02:33;;;;;;;6.57;5.40;;;;;;;;;;6174433;28;20234;-70
2022/05/02 03:06:03;;;;;;;5.10;4.60;;;;;;;;;;6175590;28;20230;-70
2022/05/02 03:09:23;;;;;;;68.93;62.77;;;;;;;;;;6174689;28;20266;-71
2022/05/02 03:12:44;;;;;;;10.40;9.20;;;;;;;;;;6171238;28;20234;-69
2022/05/02 03:16:05;;;;;;;5.87;5.30;;;;;;;;;;6171669;28;20269;-71
2022/05/02 03:19:30;;;;;;;5.30;4.90;;;;;;;;;;6170360;28;20230;-71
2022/05/02 03:22:51;;;;;;;7.07;5.97;;;;;;;;;;6174448;28;20233;-71
2022/05/02 03:26:11;;;;;;;7.70;5.20;;;;;;;;;;6176301;28;20238;-71
2022/05/02 03:29:31;;;;;;;4.60;4.20;;;;;;;;;;6169635;28;20237;-70
2022/05/02 03:32:52;;;;;;;5.73;5.23;;;;;;;;;;6173200;28;20321;-72
2022/05/02 03:36:14;;;;;;;5.80;5.30;;;;;;;;;;6173473;28;20233;-71
2022/05/02 03:39:34;;;;;;;5.53;5.03;;;;;;;;;;6174888;28;20233;-71
2022/05/02 03:42:55;;;;;;;7.83;5.13;;;;;;;;;;6175720;28;20245;-71
2022/05/02 03:46:16;;;;;;;6.17;4.87;;;;;;;;;;6175826;28;20230;-70
2022/05/02 03:49:36;;;;;;;5.13;4.73;;;;;;;;;;6172612;28;20230;-71
2022/05/02 03:52:58;;;;;;;8.07;5.60;;;;;;;;;;6176044;28;20249;-71
2022/05/02 03:56:18;;;;;;;6.73;5.80;;;;;;;;;;6169249;28;20229;-69
2022/05/02 03:59:39;;;;;;;6.17;5.53;;;;;;;;;;6160022;28;22194;-70
2022/05/02 04:03:00;;;;;;;6.50;5.83;;;;;;;;;;6174348;28;20229;-69
2022/05/02 04:06:20;;;;;;;6.90;5.37;;;;;;;;;;6151688;28;20226;-69
2022/05/02 04:09:42;;;;;;;6.63;6.03;;;;;;;;;;6174838;28;20257;-71
2022/05/02 04:13:03;;;;;;;6.43;5.40;;;;;;;;;;6178411;28;21115;-71
2022/05/02 04:16:23;;;;;;;6.50;5.30;;;;;;;;;;6172251;28;20237;-71
2022/05/02 04:19:44;;;;;;;6.93;6.07;;;;;;;;;;6161473;28;20229;-71
2022/05/02 04:23:04;;;;;;;7.60;6.80;;;;;;;;;;6175232;28;20230;-71
2022/05/02 04:26:26;;;;;;;6.10;5.40;;;;;;;;;;6176858;28;20237;-71
2022/05/02 04:29:47;;;;;;;6.87;5.07;;;;;;;;;;6158614;28;20667;-72
2022/05/02 04:33:07;;;;;;;8.70;6.00;;;;;;;;;;6177613;28;20229;-71
2022/05/02 04:36:29;;;;;;;6.00;5.20;;;;;;;;;;6171208;28;20771;-71
2022/05/02 04:39:49;;;;;;;5.47;4.97;;;;;;;;;;6173625;28;20226;-71
2022/05/02 04:43:13;;;;;;;5.60;5.10;;;;;;;;;;6174629;28;20230;-70
2022/05/02 04:46:34;;;;;;;5.97;5.37;;;;;;;;;;6150252;28;20222;-71
2022/05/02 04:49:54;;;;;;;5.37;4.77;;;;;;;;;;6176162;28;20312;-71
2022/05/02 04:53:15;;;;;;;6.03;5.50;;;;;;;;;;6178951;28;20623;-71
2022/05/02 04:56:36;;;;;;;6.03;5.43;;;;;;;;;;6153637;28;20603;-70
2022/05/02 04:59:58;;;;;;;6.57;5.23;;;;;;;;;;6176717;28;20234;-70
2022/05/02 05:03:18;;;;;;;6.27;5.13;;;;;;;;;;6174108;28;20258;-71
2022/05/02 05:06:41;;;;;;;5.20;4.70;;;;;;;;;;6153312;28;20229;-70
2022/05/02 05:10:02;;;;;;;6.07;5.40;;;;;;;;;;6174708;28;20257;-70
2022/05/02 05:13:25;;;;;;;8.03;5.10;;;;;;;;;;6178031;28;20797;-71
2022/05/02 05:16:52;;;;;;;6.13;5.17;;;;;;;;;;6172187;28;20671;-72
2022/05/02 05:20:14;;;;;;;5.93;5.43;;;;;;;;;;6170632;28;20234;-70
2022/05/02 05:23:53;;;;;;;5.97;5.33;;;;;;;;;;6155914;28;20675;-71
2022/05/02 05:27:20;;;;;;;6.37;5.87;;;;;;;;;;6174666;28;20237;-70
2022/05/02 05:30:43;;;;;;;8.77;6.83;;;;;;;;;;6170726;28;20253;-71
2022/05/02 05:34:07;;;;;;;6.07;4.93;;;;;;;;;;6171667;28;20233;-71
2022/05/02 05:37:45;;;;;;;6.03;5.43;;;;;;;;;;6172518;28;20230;-70
2022/05/02 05:41:11;;;;;;;7.17;5.67;;;;;;;;;;6173377;28;20242;-70
2022/05/02 05:44:38;;;;;;;6.73;6.07;;;;;;;;;;6160366;28;20238;-67
2022/05/02 05:48:01;;;;;;;6.27;5.20;;;;;;;;;;6168400;28;20242;-67
2022/05/02 05:51:32;;;;;;;6.23;4.90;;;;;;;;;;6166293;28;20234;-68
2022/05/02 05:55:03;;;;;;;5.20;4.80;;;;;;;;;;6166052;28;22424;-67
2022/05/02 05:58:29;;;;;;;5.63;4.90;;;;;;;;;;6173139;28;20272;-68
2022/05/02 06:01:54;;;;;;;6.80;4.47;;;;;;;;;;6164052;28;20221;-68
2022/05/02 06:05:15;;;;;;;5.90;4.40;;;;;;;;;;6170232;28;20234;-68
2022/05/02 06:08:37;;;;;;;4.40;4.00;;;;;;;;;;6162660;28;20230;-70
2022/05/02 06:11:59;;;;;;;5.43;4.20;;;;;;;;;;6168094;28;20329;-71
2022/05/02 06:18:58;;;;;;;9.43;6.53;;;;;;;;;;6158737;28;20233;-71
2022/05/02 06:22:20;;;;;;;6.00;4.83;;;;;;;;;;6157087;28;20226;-70
2022/05/02 06:25:42;;;;;;;4.97;4.10;;;;;;;;;;6156425;28;20234;-68
2022/05/02 06:29:03;;;;;;;5.17;4.03;;;;;;;;;;6161601;28;20555;-70
2022/05/02 06:32:24;;;;;;;6.77;3.70;;;;;;;;;;6167414;28;20691;-69
2022/05/02 06:35:49;;;;;;;6.17;3.83;;;;;;;;;;6163620;28;20234;-69
2022/05/02 06:39:11;;;;;;;4.07;3.77;;;;;;;;;;6161095;28;20245;-70
2022/05/02 06:42:36;;;;;;;4.03;3.67;;;;;;;;;;6139291;28;20233;-67
2022/05/02 06:46:00;;;;;;;7.53;3.80;;;;;;;;;;6139112;28;20249;-68
2022/05/02 06:49:22;;;;;;;5.30;3.10;;;;;;;;;;6135321;28;20345;-70
2022/05/02 06:52:49;;;;;;;3.97;3.57;;;;;;;;;;6146451;28;20845;-69
2022/05/02 06:56:12;;;;;;;5.63;3.77;;;;;;;;;;6133185;28;20237;-68
2022/05/02 06:59:39;;;;;;;4.70;2.53;;;;;;;;;;6141124;28;20526;-69
2022/05/02 07:03:10;;;;;;;2.10;1.90;;;;;;;;;;6144228;28;20234;-71
2022/05/02 07:06:39;;;;;;;3.00;2.27;;;;;;;;;;6115474;28;20226;-69
2022/05/02 07:10:02;;;;;;;2.60;2.37;;;;;;;;;;6146839;28;20233;-70
2022/05/02 07:13:29;;;;;;;2.80;2.40;;;;;;;;;;6169432;28;20226;-70
2022/05/02 07:16:54;;;;;;;2.57;2.37;;;;;;;;;;6163924;28;20238;-69
2022/05/02 07:20:18;;;;;;;2.93;2.60;;;;;;;;;;6170420;28;20234;-69
2022/05/02 07:23:45;;;;;;;4.30;2.40;;;;;;;;;;6168113;28;20328;-69
2022/05/02 07:27:11;;;;;;;3.77;2.13;;;;;;;;;;6167829;28;20629;-68
2022/05/02 07:30:31;;;;;;;4.30;2.63;;;;;;;;;;6171489;28;20257;-68
2022/05/02 07:33:54;;;;;;;2.57;2.10;;;;;;;;;;6167733;28;20242;-66
2022/05/02 07:37:15;;;;;;;2.87;1.93;;;;;;;;;;6161355;28;20226;-67
2022/05/02 07:40:36;;;;;;;3.37;2.30;;;;;;;;;;6157266;28;20229;-66
2022/05/02 07:44:01;;;;;;;4.30;2.67;;;;;;;;;;6176654;28;20242;-65
2022/05/02 07:47:22;;;;;;;2.70;2.50;;;;;;;;;;6177152;28;20238;-65
2022/05/02 07:50:44;;;;;;;2.53;2.30;;;;;;;;;;6175829;28;20253;-66
2022/05/02 07:54:05;;;;;;;3.23;2.93;;;;;;;;;;6167563;28;20543;-66
2022/05/02 07:57:27;;;;;;;4.57;2.83;;;;;;;;;;6154943;28;22744;-67
2022/05/02 08:00:48;;;;;;;4.37;3.27;;;;;;;;;;6128731;28;20233;-68
2022/05/02 08:04:11;;;;;;;5.40;2.77;;;;;;;;;;6138965;28;20242;-67
2022/05/02 08:07:35;;;;;;;7.57;3.93;;;;;;;;;;6140708;28;20245;-66
2022/05/02 08:11:02;;;;;;;3.53;3.20;;;;;;;;;;6142502;28;20226;-67
2022/05/02 08:14:26;;;;;;;3.77;3.20;;;;;;;;;;6140281;28;20234;-68
2022/05/02 08:17:51;;;;;;;4.80;3.40;;;;;;;;;;6137384;28;20234;-67
2022/05/02 08:21:15;;;;;;;3.60;3.30;;;;;;;;;;6143696;28;22986;-66
2022/05/02 08:28:24;;;;;;;4.53;4.07;;;;;;;;;;6173282;28;20226;-66
2022/05/02 08:31:51;;;;;;;5.87;4.33;;;;;;;;;;6143213;28;20257;-67
2022/05/02 08:35:13;;;;;;;8.23;4.23;;;;;;;;;;6187438;28;20611;-69
2022/05/02 08:38:49;;;;;;;4.73;4.33;;;;;;;;;;6183672;28;20237;-70
2022/05/02 08:42:27;;;;;;;7.07;4.63;;;;;;;;;;6185528;28;20520;-69
2022/05/02 08:46:17;;;;;;;7.00;5.00;;;;;;;;;;6177738;28;21866;-69
2022/05/02 08:50:08;;;;;;;7.87;4.53;;;;;;;;;;6173781;28;20759;-69
2022/05/02 08:53:48;;;;;;;9.10;5.93;;;;;;;;;;6074482;28;20233;-70
2022/05/02 08:57:32;;;;;;;9.37;6.33;;;;;;;;;;6151656;28;20234;-69
2022/05/02 09:01:00;;;;;;;11.20;5.87;;;;;;;;;;6139241;28;20276;-68
2022/05/02 09:04:39;;;;;;;8.03;7.07;;;;;;;;;;6165431;28;20233;-68
2022/05/02 09:08:14;;;;;;;5.87;5.33;;;;;;;;;;6139285;28;20786;-67
2022/05/02 09:11:43;;;;;;;6.47;5.23;;;;;;;;;;6125863;28;20694;-69
2022/05/02 09:15:10;;;;;;;12.97;7.13;;;;;;;;;;6161090;28;20237;-69
2022/05/02 09:18:51;;;;;;;8.30;6.30;;;;;;;;;;6165254;28;20221;-70
2022/05/02 09:22:37;;;;;;;12.37;8.17;;;;;;;;;;6179468;28;20229;-70
2022/05/02 09:26:13;;;;;;;7.27;6.57;;;;;;;;;;6180729;28;20549;-70
2022/05/02 09:29:52;;;;;;;7.40;6.53;;;;;;;;;;6165738;28;20233;-72
2022/05/02 09:33:33;;;;;;;7.27;6.37;;;;;;;;;;6175483;28;20229;-71
2022/05/02 09:37:02;;;;;;;8.97;6.60;;;;;;;;;;6178881;28;20221;-69
2022/05/02 09:40:29;;;;;;;7.93;5.90;;;;;;;;;;6169307;28;20245;-69
2022/05/02 09:51:32;;;;;;;6.63;5.93;;;;;;;;;;6175268;28;20226;-68
2022/05/02 09:58:54;;;;;;;6.77;6.03;;;;;;;;;;6180726;28;20336;-69
2022/05/02 10:02:19;;;;;;;8.23;6.67;;;;;;;;;;6178094;28;20233;-66
2022/05/02 10:05:46;;;;;;;9.70;6.30;;;;;;;;;;6171081;28;20324;-67
2022/05/02 10:09:13;;;;;;;5.83;5.20;;;;;;;;;;6174761;28;20230;-66
2022/05/02 10:12:41;;;;;;;5.40;4.90;;;;;;;;;;6164593;28;20257;-69
2022/05/02 10:16:06;;;;;;;4.80;4.40;;;;;;;;;;6167363;28;20230;-68
2022/05/02 10:19:30;;;;;;;6.80;5.40;;;;;;;;;;6175334;28;20234;-70
2022/05/02 10:22:51;;;;;;;10.10;5.70;;;;;;;;;;6175859;28;20230;-70
2022/05/02 10:26:18;;;;;;;7.17;6.03;;;;;;;;;;6172715;28;20588;-70
2022/05/02 10:29:47;;;;;;;7.37;6.27;;;;;;;;;;6172574;28;20254;-69
2022/05/02 10:33:10;;;;;;;6.50;5.90;;;;;;;;;;6175875;28;20577;-69
2022/05/02 10:36:37;;;;;;;8.77;6.03;;;;;;;;;;6149913;28;20753;-69
2022/05/02 10:40:04;;;;;;;9.80;7.07;;;;;;;;;;6146556;28;20234;-70
2022/05/02 10:43:26;;;;;;;7.27;6.67;;;;;;;;;;6141518;28;20229;-69
2022/05/02 10:46:48;;;;;;;8.40;7.57;;;;;;;;;;6155656;28;20233;-68
2022/05/02 10:50:18;;;;;;;8.23;7.30;;;;;;;;;;6172049;28;20317;-69
2022/05/02 10:54:00;;;;;;;7.60;6.83;;;;;;;;;;6157150;28;20233;-71
2022/05/02 10:57:26;;;;;;;9.17;8.20;;;;;;;;;;6172310;28;20246;-69
2022/05/02 11:00:56;;;;;;;7.97;7.17;;;;;;;;;;6167533;28;20238;-73
2022/05/02 11:04:23;;;;;;;8.80;6.83;;;;;;;;;;6135442;28;20265;-71
2022/05/02 11:07:46;;;;;;;8.30;7.60;;;;;;;;;;6157995;28;20232;-69
2022/05/02 11:11:07;;;;;;;8.60;7.57;;;;;;;;;;6164164;28;20238;-71
2022/05/02 11:14:31;;;;;;;8.03;6.37;;;;;;;;;;6160598;28;20575;-70
2022/05/02 11:18:07;;;;;;;7.18;6.57;;;;;;;;;;6163738;28;20238;-68
2022/05/02 11:21:39;;;;;;;7.18;6.63;;;;;;;;;;6159869;28;20233;-73
2022/05/02 11:25:06;;;;;;;6.40;5.28;;;;;;;;;;6164398;28;20237;-72
2022/05/02 11:28:31;;;;;;;6.95;6.32;;;;;;;;;;6170273;28;20229;-70
2022/05/02 11:31:54;;;;;;;6.88;6.28;;;;;;;;;;6171160;28;20876;-69
2022/05/02 11:35:20;;;;;;;10.68;6.15;;;;;;;;;;6174785;28;20238;-70
2022/05/02 11:38:54;;;;;;;7.22;6.45;;;;;;;;;;6172336;28;20253;-71
2022/05/02 11:42:18;;;;;;;9.73;5.50;;;;;;;;;;6169639;28;20241;-71
2022/05/02 11:45:42;;;;;;;7.13;6.57;;;;;;;;;;6163432;28;20324;-69
2022/05/02 11:49:04;;;;;;;6.28;5.78;;;;;;;;;;6170010;28;20234;-70
2022/05/02 11:52:30;;;;;;;7.30;6.63;;;;;;;;;;6177309;28;20249;-69
2022/05/02 11:55:53;;;;;;;5.80;5.30;;;;;;;;;;6175294;28;20362;-68
2022/05/02 11:59:16;;;;;;;8.48;7.43;;;;;;;;;;6174016;28;20254;-70
2022/05/02 12:02:46;;;;;;;7.18;6.10;;;;;;;;;;6171499;28;20649;-68
2022/05/02 12:06:10;;;;;;;5.55;5.05;;;;;;;;;;6172456;28;20238;-68
2022/05/02 12:09:34;;;;;;;8.65;5.80;;;;;;;;;;6169339;28;20226;-69
2022/05/02 12:12:56;;;;;;;6.60;6.00;;;;;;;;;;6164145;28;20333;-72
2022/05/02 12:16:17;;;;;;;5.97;5.38;;;;;;;;;;6171964;28;20233;-69
2022/05/02 12:19:38;;;;;;;5.20;4.80;;;;;;;;;;6173125;28;20226;-71
2022/05/02 12:23:04;;;;;;;5.88;5.38;;;;;;;;;;6168816;28;20234;-71
2022/05/02 12:26:25;;;;;;;5.00;4.38;;;;;;;;;;6174741;28;20650;-70
2022/05/02 12:29:56;;;;;;;5.10;4.60;;;;;;;;;;6155351;28;20237;-70
2022/05/02 12:33:20;;;;;;;5.22;4.72;;;;;;;;;;6166121;28;20233;-68
2022/05/02 12:36:50;;;;;;;6.97;5.57;;;;;;;;;;6137423;28;22408;-68
2022/05/02 12:40:12;;;;;;;5.90;5.40;;;;;;;;;;6168486;28;20242;-67
2022/05/02 12:43:42;;;;;;;6.20;5.55;;;;;;;;;;6171871;28;20242;-66
2022/05/02 12:47:05;;;;;;;7.05;5.57;;;;;;;;;;6166380;28;20237;-66
2022/05/02 12:50:28;;;;;;;5.60;5.05;;;;;;;;;;6170201;28;20352;-67
2022/05/02 13:01:22;;;;;;;5.72;5.07;;;;;;;;;;6173145;28;20580;-65
2022/05/02 13:04:46;;;;;;;5.72;5.32;;;;;;;;;;6166275;28;20300;-68
2022/05/02 13:08:10;;;;;;;6.25;5.65;;;;;;;;;;6168079;28;20233;-66
2022/05/02 13:11:36;;;;;;;5.70;5.00;;;;;;;;;;6166859;28;20238;-69
2022/05/02 13:14:59;;;;;;;4.68;4.32;;;;;;;;;;6179775;28;20230;-68
2022/05/02 13:18:20;;;;;;;6.35;5.10;;;;;;;;;;6180388;28;20257;-65
2022/05/02 13:21:42;;;;;;;5.63;5.00;;;;;;;;;;6150356;28;20242;-66
2022/05/02 13:25:04;;;;;;;5.70;5.28;;;;;;;;;;6179578;28;20237;-67
2022/05/02 13:28:25;;;;;;;5.20;4.80;;;;;;;;;;6182855;28;20511;-67
2022/05/02 13:31:48;;;;;;;5.15;4.70;;;;;;;;;;6139837;28;20325;-68
2022/05/02 13:35:10;;;;;;;5.82;5.25;;;;;;;;;;6167604;28;20238;-68
2022/05/02 13:38:40;;;;;;;5.60;5.07;;;;;;;;;;6177912;28;20238;-67
2022/05/02 13:42:03;;;;;;;5.10;4.68;;;;;;;;;;6173202;28;20238;-67
2022/05/02 13:45:35;;;;;;;4.85;4.45;;;;;;;;;;6177560;28;20739;-67
2022/05/02 13:49:03;;;;;;;6.72;4.80;;;;;;;;;;6170389;28;20237;-68
2022/05/02 13:52:29;;;;;;;5.65;5.18;;;;;;;;;;6175986;28;20232;-69
2022/05/02 13:55:54;;;;;;;8.02;5.18;;;;;;;;;;6176572;28;20607;-67
2022/05/02 13:59:18;;;;;;;6.22;5.70;;;;;;;;;;6176425;28;20226;-68
2022/05/02 14:02:49;;;;;;;4.97;4.57;;;;;;;;;;6174265;28;20226;-66
2022/05/02 14:06:12;;;;;;;4.38;4.05;;;;;;;;;;6172887;28;20241;-69
2022/05/02 14:09:40;;;;;;;10.25;5.18;;;;;;;;;;6171563;28;20262;-66
2022/05/02 14:13:16;;;;;;;5.93;5.43;;;;;;;;;;6164291;28;20218;-66
2022/05/02 14:16:38;;;;;;;5.60;5.00;;;;;;;;;;6148990;28;20230;-66
2022/05/02 14:20:10;;;;;;;5.82;5.28;;;;;;;;;;6176610;28;20312;-69
2022/05/02 14:23:31;;;;;;;5.57;5.00;;;;;;;;;;6166526;28;20249;-67
2022/05/02 14:26:59;;;;;;;5.18;4.78;;;;;;;;;;6178696;28;20261;-68
2022/05/02 14:30:25;;;;;;;4.70;4.22;;;;;;;;;;6175283;28;20503;-68
2022/05/02 14:33:48;;;;;;;4.65;4.25;;;;;;;;;;6177554;28;20230;-66
2022/05/02 14:37:09;;;;;;;5.78;4.22;;;;;;;;;;6174827;28;20230;-68
2022/05/02 14:40:30;;;;;;;5.55;5.15;;;;;;;;;;6176097;28;20253;-67
2022/05/02 14:43:51;;;;;;;4.38;4.07;;;;;;;;;;6178754;28;20245;-68
2022/05/02 14:47:16;;;;;;;5.97;4.82;;;;;;;;;;6175811;28;20234;-68
2022/05/02 14:50:39;;;;;;;5.82;4.43;;;;;;;;;;6181339;28;20623;-69
2022/05/02 14:54:00;;;;;;;4.35;3.92;;;;;;;;;;6183241;28;20226;-67
2022/05/02 14:57:23;;;;;;;4.93;4.40;;;;;;;;;;6184147;28;20237;-67
2022/05/02 15:00:47;;;;;;;6.10;5.45;;;;;;;;;;6182079;28;20308;-67
2022/05/02 15:04:11;;;;;;;5.13;4.72;;;;;;;;;;6171983;28;20248;-67
2022/05/02 15:07:40;;;;;;;5.38;4.78;;;;;;;;;;6179298;28;20799;-68
2022/05/02 15:11:04;;;;;;;5.50;4.63;;;;;;;;;;6177003;28;20225;-67
2022/05/02 15:14:42;;;;;;;4.88;4.47;;;;;;;;;;6180583;28;20615;-68
2022/05/02 15:18:10;;;;;;;6.47;4.05;;;;;;;;;;6177819;28;20239;-68
2022/05/02 15:21:36;;;;;;;3.75;3.38;;;;;;;;;;6176173;28;20261;-67
2022/05/02 15:25:01;;;;;;;4.63;3.20;;;;;;;;;;6181718;28;20229;-69
2022/05/02 15:39:41;;;;;;;7.70;6.03;;;;;;;;;;6178793;28;20233;-68
2022/05/02 15:43:20;;;;;;;16.98;4.40;;;;;;;;;;6165508;28;20352;-69
2022/05/02 15:46:41;;;;;;;12.88;11.68;;;;;;;;;;6154035;28;20230;-69
2022/05/02 15:50:12;;;;;;;4.93;4.43;;;;;;;;;;6176935;28;20233;-68
2022/05/02 15:53:32;;;;;;;6.25;5.22;;;;;;;;;;6175059;28;20266;-70
2022/05/02 15:57:21;;;;;;;6.65;5.55;;;;;;;;;;6170987;28;20619;-69
2022/05/02 16:00:54;;;;;;;8.40;7.53;;;;;;;;;;6182153;28;20615;-69
2022/05/02 16:04:22;;;;;;;6.13;5.60;;;;;;;;;;6178195;28;20595;-69
2022/05/02 16:11:35;;;;;;;4.53;3.80;;;;;;;;;;6147988;28;20316;-70
2022/05/02 16:14:55;;;;;;;4.65;4.25;;;;;;;;;;6169243;28;20313;-69
2022/05/02 16:18:22;;;;;;;5.22;3.70;;;;;;;;;;6167971;28;20245;-70
2022/05/02 16:21:43;;;;;;;2.78;2.35;;;;;;;;;;6151379;28;20237;-69
2022/05/02 16:25:12;;;;;;;4.47;3.03;;;;;;;;;;6173382;28;20245;-69
2022/05/02 16:28:33;;;;;;;3.50;3.20;;;;;;;;;;6173331;28;20238;-70
2022/05/02 16:32:00;;;;;;;7.28;6.65;;;;;;;;;;6181750;28;20744;-70
2022/05/02 16:35:23;;;;;;;2.60;2.13;;;;;;;;;;6176382;28;20234;-69
2022/05/02 16:38:44;;;;;;;3.63;3.20;;;;;;;;;;6174273;28;21177;-69
2022/05/02 16:42:05;;;;;;;6.72;5.00;;;;;;;;;;6176523;28;20241;-70
2022/05/02 16:45:28;;;;;;;3.70;2.90;;;;;;;;;;6180052;28;20234;-70
2022/05/02 16:48:50;;;;;;;3.28;2.25;;;;;;;;;;6186558;28;20565;-71
2022/05/02 16:52:13;;;;;;;2.65;2.38;;;;;;;;;;6184238;28;20300;-69
2022/05/02 16:55:34;;;;;;;5.55;4.72;;;;;;;;;;6178759;28;20230;-70
2022/05/02 16:58:55;;;;;;;4.60;2.67;;;;;;;;;;6178844;28;20230;-70
2022/05/02 17:02:16;;;;;;;4.45;4.07;;;;;;;;;;6167057;28;20824;-69
2022/05/02 17:05:40;;;;;;;4.50;3.40;;;;;;;;;;6177371;28;20222;-70
2022/05/02 17:09:09;;;;;;;3.47;2.50;;;;;;;;;;6180645;28;20226;-72
2022/05/02 17:12:30;;;;;;;2.50;2.22;;;;;;;;;;6182307;28;20233;-71
2022/05/02 17:15:56;;;;;;;1.80;1.70;;;;;;;;;;6179865;28;20235;-70
2022/05/02 17:19:19;;;;;;;12.90;11.63;;;;;;;;;;6181198;28;20513;-71
2022/05/02 17:22:40;;;;;;;11.52;9.23;;;;;;;;;;6181855;28;20234;-72
2022/05/02 17:26:04;;;;;;;10.82;9.45;;;;;;;;;;6181518;28;20230;-71
2022/05/02 17:29:30;;;;;;;7.65;5.65;;;;;;;;;;6180171;28;20230;-71
2022/05/02 17:32:51;;;;;;;2.05;1.85;;;;;;;;;;6170654;28;20233;-70
2022/05/02 17:36:12;;;;;;;8.07;6.72;;;;;;;;;;6172328;28;20393;-71
2022/05/02 17:39:33;;;;;;;4.72;3.45;;;;;;;;;;6176630;28;20253;-66
2022/05/02 17:42:56;;;;;;;9.05;7.65;;;;;;;;;;6172760;28;20245;-66
2022/05/02 17:46:16;;;;;;;7.63;5.80;;;;;;;;;;6173926;28;23048;-66
2022/05/02 17:49:38;;;;;;;3.35;2.47;;;;;;;;;;6174244;28;20257;-65
2022/05/02 17:52:59;;;;;;;4.15;3.80;;;;;;;;;;6175325;28;20229;-66
2022/05/02 17:56:21;;;;;;;2.05;1.67;;;;;;;;;;6178092;28;20225;-65
2022/05/02 17:59:43;;;;;;;4.68;2.05;;;;;;;;;;6176937;28;20988;-71
2022/05/02 18:03:12;;;;;;;1.90;1.73;;;;;;;;;;6180013;28;20631;-70
2022/05/02 18:06:32;;;;;;;2.17;1.10;;;;;;;;;;6154670;28;20225;-71
2022/05/02 18:09:54;;;;;;;7.55;6.30;;;;;;;;;;6182044;28;20237;-71
2022/05/02 18:13:16;;;;;;;7.50;5.55;;;;;;;;;;6179260;28;20253;-70
2022/05/02 18:16:39;;;;;;;14.25;10.70;;;;;;;;;;6148410;28;20266;-71
2022/05/02 18:20:04;;;;;;;7.70;4.95;;;;;;;;;;6175501;28;20230;-72
2022/05/02 18:23:24;;;;;;;5.03;3.78;;;;;;;;;;6180028;28;20245;-73
2022/05/02 18:26:51;;;;;;;7.05;6.35;;;;;;;;;;6150061;28;20222;-72
2022/05/02 18:30:14;;;;;;;14.75;13.25;;;;;;;;;;6177723;28;20226;-73
2022/05/02 18:33:44;;;;;;;12.23;11.07;;;;;;;;;;6179060;28;20511;-72
2022/05/02 18:37:05;;;;;;;2.77;2.40;;;;;;;;;;6180626;28;20226;-71
2022/05/02 18:40:27;;;;;;;5.00;4.55;;;;;;;;;;6168746;28;20229;-71
2022/05/02 18:43:48;;;;;;;2.10;1.90;;;;;;;;;;6175796;28;20233;-69
2022/05/02 18:54:28;;;;;;;1.93;1.20;;;;;;;;;;6172712;28;20234;-74
2022/05/02 18:57:52;;;;;;;2.60;1.40;;;;;;;;;;6174466;28;20245;-72
2022/05/02 19:01:13;;;;;;;3.00;0.80;;;;;;;;;;6178748;28;20272;-71
2022/05/02 19:04:39;;;;;;;1.10;1.00;;;;;;;;;;6178300;28;20241;-72
2022/05/02 19:08:02;;;;;;;1.80;1.53;;;;;;;;;;6174369;28;20247;-71
2022/05/02 19:11:23;;;;;;;1.80;0.90;;;;;;;;;;6172353;28;20234;-74
2022/05/02 19:14:45;;;;;;;2.03;1.10;;;;;;;;;;6176145;28;20230;-74
2022/05/02 19:18:05;;;;;;;1.37;1.27;;;;;;;;;;6178540;28;20718;-75
2022/05/02 19:21:32;;;;;;;1.80;0.83;;;;;;;;;;6177601;28;20230;-73
2022/05/02 19:25:11;;;;;;;2.40;1.10;;;;;;;;;;6180075;28;20226;-72
2022/05/02 19:28:32;;;;;;;2.20;1.00;;;;;;;;;;6179459;28;20299;-70
2022/05/02 19:31:57;;;;;;;1.00;0.87;;;;;;;;;;6175279;28;20321;-73
2022/05/02 19:39:07;;;;;;;1.13;1.00;;;;;;;;;;6173130;28;22326;-69
2022/05/02 19:42:32;;;;;;;2.30;1.20;;;;;;;;;;6176106;28;20238;-70
2022/05/02 19:45:54;;;;;;;0.77;0.77;;;;;;;;;;6173276;28;20245;-71
2022/05/02 19:49:15;;;;;;;1.27;1.17;;;;;;;;;;6168223;28;20257;-72
2022/05/02 19:52:39;;;;;;;1.70;0.63;;;;;;;;;;6173176;28;20324;-73
2022/05/02 19:56:00;;;;;;;2.60;0.90;;;;;;;;;;6170707;28;20581;-72
2022/05/02 19:59:22;;;;;;;2.27;1.23;;;;;;;;;;6178901;28;20718;-73
2022/05/02 20:02:45;;;;;;;0.97;0.80;;;;;;;;;;6173119;28;20234;-73
2022/05/02 20:06:07;;;;;;;1.23;1.10;;;;;;;;;;6175537;28;20230;-73
2022/05/02 20:09:28;;;;;;;2.60;0.90;;;;;;;;;;6164354;28;20542;-72
2022/05/02 20:12:49;;;;;;;1.10;1.00;;;;;;;;;;6177361;28;20313;-73
2022/05/02 20:16:11;;;;;;;1.47;1.13;;;;;;;;;;6176091;28;20230;-73
2022/05/02 20:19:31;;;;;;;1.17;0.97;;;;;;;;;;6178234;28;20238;-72
2022/05/02 20:22:52;;;;;;;1.90;1.33;;;;;;;;;;6181881;28;20245;-73
2022/05/02 20:26:13;;;;;;;1.00;1.00;;;;;;;;;;6181437;28;20229;-73
2022/05/02 20:29:34;;;;;;;1.47;1.37;;;;;;;;;;6175949;28;20233;-69
2022/05/02 20:36:41;;;;;;;0.80;0.80;;;;;;;;;;6178977;28;20324;-71
2022/05/02 20:40:02;;;;;;;1.60;0.70;;;;;;;;;;6146033;28;20226;-70
2022/05/02 20:43:30;;;;;;;0.73;0.60;;;;;;;;;;6178447;28;20402;-71
2022/05/02 20:46:54;;;;;;;0.73;0.73;;;;;;;;;;6179524;28;20320;-71
2022/05/02 20:50:16;;;;;;;0.80;0.80;;;;;;;;;;6175133;28;20229;-71
2022/05/02 20:53:37;;;;;;;1.23;0.83;;;;;;;;;;6164961;28;20230;-70
2022/05/02 20:56:59;;;;;;;1.30;1.00;;;;;;;;;;6168738;28;20241;-67
2022/05/02 21:00:20;;;;;;;1.80;0.80;;;;;;;;;;6171954;28;20234;-68
2022/05/02 21:03:41;;;;;;;2.37;1.40;;;;;;;;;;6161785;28;20248;-68
2022/05/02 21:07:03;;;;;;;2.23;1.50;;;;;;;;;;6169899;28;20225;-68
2022/05/02 21:10:23;;;;;;;3.00;1.00;;;;;;;;;;6166654;28;20234;-68
2022/05/02 21:13:54;;;;;;;1.33;1.23;;;;;;;;;;6166308;28;20577;-68
2022/05/02 21:17:20;;;;;;;3.30;1.63;;;;;;;;;;6168714;28;20635;-69
2022/05/02 21:20:44;;;;;;;1.67;1.43;;;;;;;;;;6166734;28;20226;-69
2022/05/02 21:24:10;;;;;;;0.93;0.83;;;;;;;;;;6161584;28;20230;-68